Lindside, West Virginia
Current Conditions -  °F | °C
As of 3:35 AM on Friday 31 Oct 2014 (Local Time) from KPSK Reporting Station
Scattered Clouds Scattered Clouds  
Wind Chill: 34°   Ceiling: Unl
Heat Index: 34°   Visibility: 7mi
Dew Point: 34°   Wind: 3mph
Humidity: 100%   Direction: 290°WNW
Pressure: 30.01"   Gusts: NA
Location:  37.45°N, 80.67°W
Report Text: KPSK 310735Z AUTO 29003KT 7SM SCT045 01/01 A3001 RMK AO2
Loading
Personal Weather Stations






























Interactive Weather Map
Tropical Storm Tracking
New forecast layout! Learn more

10-Day Weather Forecast

Advertisements
Track Severe Weather on mobile